createdAt,value
2018-06-11T00:02:03.885Z,7.67
2018-06-11T00:04:32.578Z,8.00
2018-06-11T00:07:01.346Z,7.85
2018-06-11T00:09:30.090Z,7.95
2018-06-11T00:11:59.025Z,7.80
2018-06-11T00:14:27.743Z,7.65
2018-06-11T00:16:56.474Z,8.13
2018-06-11T00:19:25.214Z,7.85
2018-06-11T00:21:53.947Z,6.83
2018-06-11T00:24:22.781Z,7.05
2018-06-11T00:26:51.498Z,6.80
2018-06-11T00:29:20.241Z,6.78
2018-06-11T00:31:48.941Z,6.70
2018-06-11T00:34:17.990Z,7.10
2018-06-11T00:36:46.992Z,6.50
2018-06-11T00:39:16.086Z,6.60
2018-06-11T00:41:45.073Z,6.87
2018-06-11T00:44:14.020Z,6.15
2018-06-11T00:46:42.964Z,6.08
2018-06-11T00:49:12.067Z,5.72
2018-06-11T00:51:40.999Z,5.72
2018-06-11T00:54:09.982Z,6.00
2018-06-11T00:56:38.947Z,5.55
2018-06-11T00:59:07.714Z,6.22
2018-06-11T01:01:36.492Z,6.30
2018-06-11T01:04:05.358Z,5.97
2018-06-11T01:06:34.292Z,5.85
2018-06-11T01:09:03.240Z,5.83
2018-06-11T01:11:32.185Z,4.97
2018-06-11T01:14:01.185Z,5.45
2018-06-11T01:16:30.313Z,5.62
2018-06-11T01:18:59.165Z,5.45
2018-06-11T01:21:28.108Z,6.03
2018-06-11T01:23:57.142Z,5.40
2018-06-11T01:26:26.139Z,4.92
2018-06-11T01:28:55.023Z,5.92
2018-06-11T01:31:23.931Z,5.58
2018-06-11T01:33:52.860Z,5.00
2018-06-11T01:36:21.897Z,5.28
2018-06-11T01:38:50.677Z,5.17
2018-06-11T01:41:19.696Z,5.12
2018-06-11T01:43:48.364Z,5.12
2018-06-11T01:46:17.057Z,4.60
2018-06-11T01:48:45.773Z,4.70
2018-06-11T01:51:14.489Z,5.20
2018-06-11T01:53:43.174Z,4.67
2018-06-11T01:56:12.001Z,4.90
2018-06-11T01:58:40.790Z,4.60
2018-06-11T02:01:09.692Z,4.60
2018-06-11T02:03:38.421Z,4.70
2018-06-11T02:06:07.174Z,4.47
2018-06-11T02:08:35.891Z,4.10
2018-06-11T02:11:04.657Z,4.30
2018-06-11T02:13:33.345Z,3.98
2018-06-11T02:16:02.171Z,4.12
2018-06-11T02:18:30.956Z,4.00
2018-06-11T02:20:59.745Z,4.30
2018-06-11T02:23:28.463Z,4.25
2018-06-11T02:25:57.207Z,4.22
2018-06-11T02:28:25.938Z,3.70
2018-06-11T02:30:54.665Z,4.05
2018-06-11T02:33:23.378Z,3.83
2018-06-11T02:35:52.080Z,3.80
2018-06-11T02:38:20.887Z,3.25
2018-06-11T02:40:49.639Z,3.85
2018-06-11T02:43:18.349Z,3.67
2018-06-11T02:45:47.032Z,3.65
2018-06-11T02:48:15.774Z,2.98
2018-06-11T02:50:44.591Z,4.00
2018-06-11T02:53:13.315Z,3.83
2018-06-11T02:55:42.212Z,3.70
2018-06-11T02:58:12.057Z,3.95
2018-06-11T03:00:40.741Z,3.00
2018-06-11T03:03:09.476Z,3.02
2018-06-11T03:05:38.206Z,3.70
2018-06-11T03:08:06.977Z,3.30
2018-06-11T03:10:35.677Z,3.62
2018-06-11T03:13:04.624Z,3.00
2018-06-11T03:15:33.571Z,3.02
2018-06-11T03:18:02.287Z,2.90
2018-06-11T03:20:31.271Z,2.83
2018-06-11T03:23:00.315Z,3.22
2018-06-11T03:25:29.210Z,3.40
2018-06-11T03:27:57.937Z,3.25
2018-06-11T03:30:26.716Z,3.10
2018-06-11T03:32:55.708Z,3.25
2018-06-11T03:35:24.623Z,2.90
2018-06-11T03:37:53.360Z,2.80
2018-06-11T03:40:22.198Z,2.80
2018-06-11T03:42:51.081Z,2.80
2018-06-11T03:45:19.969Z,2.92
2018-06-11T03:47:48.785Z,2.52
2018-06-11T03:50:17.507Z,2.60
2018-06-11T03:52:46.514Z,3.05
2018-06-11T03:55:15.547Z,2.60
2018-06-11T03:57:44.386Z,2.60
2018-06-11T04:00:13.082Z,2.77
2018-06-11T04:02:41.816Z,2.85
2018-06-11T04:05:10.867Z,2.77
2018-06-11T04:07:39.756Z,2.70
2018-06-11T04:10:08.534Z,2.62
2018-06-11T04:12:37.476Z,2.60
2018-06-11T04:15:06.351Z,2.45
2018-06-11T04:17:35.313Z,2.47
2018-06-11T04:20:04.357Z,2.40
2018-06-11T04:22:33.027Z,2.67
2018-06-11T04:25:02.258Z,2.50
2018-06-11T04:27:31.179Z,2.55
2018-06-11T04:29:59.986Z,2.83
2018-06-11T04:32:28.770Z,2.77
2018-06-11T04:34:57.601Z,2.55
2018-06-11T04:37:26.664Z,2.98
2018-06-11T04:39:55.514Z,2.33
2018-06-11T04:42:24.481Z,2.58
2018-06-11T04:44:53.257Z,2.75
2018-06-11T04:47:22.258Z,2.42
2018-06-11T04:49:51.210Z,2.10
2018-06-11T04:52:20.183Z,2.35
2018-06-11T04:54:49.062Z,2.60
2018-06-11T04:57:17.778Z,2.40
2018-06-11T04:59:46.669Z,2.42
2018-06-11T05:02:15.543Z,2.98
2018-06-11T05:04:44.302Z,2.72
2018-06-11T05:07:13.314Z,2.65
2018-06-11T05:09:42.303Z,2.92
2018-06-11T05:12:11.223Z,3.10
2018-06-11T05:14:40.062Z,3.15
2018-06-11T05:17:08.994Z,3.20
2018-06-11T05:19:37.753Z,2.90
2018-06-11T05:22:06.475Z,2.72
2018-06-11T05:24:35.299Z,3.33
2018-06-11T05:27:04.163Z,3.72
2018-06-11T05:29:32.922Z,2.85
2018-06-11T05:32:01.865Z,2.83
2018-06-11T05:34:30.713Z,3.33
2018-06-11T05:36:59.470Z,3.10
2018-06-11T05:39:28.492Z,2.75
2018-06-11T05:41:57.501Z,2.90
2018-06-11T05:44:26.213Z,2.90
2018-06-11T05:46:55.033Z,3.55
2018-06-11T05:49:23.983Z,3.52
2018-06-11T05:51:52.949Z,3.45
2018-06-11T05:54:23.469Z,3.62
2018-06-11T05:56:52.364Z,3.90
2018-06-11T05:59:21.204Z,3.87
2018-06-11T06:01:50.003Z,4.60
2018-06-11T06:04:18.705Z,4.42
2018-06-11T06:06:47.603Z,3.87
2018-06-11T06:09:16.308Z,4.35
2018-06-11T06:11:45.106Z,4.08
2018-06-11T06:14:13.852Z,4.53
2018-06-11T06:16:42.637Z,4.80
2018-06-11T06:19:11.736Z,4.58
2018-06-11T06:21:40.602Z,4.55
2018-06-11T06:24:09.613Z,4.25
2018-06-11T06:26:38.371Z,4.12
2018-06-11T06:29:07.138Z,3.58
2018-06-11T06:31:35.809Z,3.83
2018-06-11T06:34:04.801Z,4.62
2018-06-11T06:36:33.770Z,4.20
2018-06-11T06:39:02.693Z,5.03
2018-06-11T06:41:31.544Z,5.00
2018-06-11T06:44:00.398Z,5.20
2018-06-11T06:46:29.125Z,5.70
2018-06-11T06:48:57.847Z,5.70
2018-06-11T06:51:26.829Z,5.47
2018-06-11T06:53:55.545Z,7.15
2018-06-11T06:56:24.391Z,5.28
2018-06-11T06:58:53.233Z,5.50
2018-06-11T07:01:22.033Z,4.92
2018-06-11T07:03:50.717Z,5.12
2018-06-11T07:06:19.419Z,4.95
2018-06-11T07:08:48.300Z,4.85
2018-06-11T07:11:17.058Z,5.22
2018-06-11T07:13:45.829Z,4.92
2018-06-11T07:16:14.849Z,4.50
2018-06-11T07:18:43.947Z,4.80
2018-06-11T07:21:12.677Z,4.65
2018-06-11T07:23:41.522Z,4.62
2018-06-11T07:26:10.193Z,5.35
2018-06-11T07:28:39.166Z,5.03
2018-06-11T07:31:08.387Z,4.78
2018-06-11T07:33:37.134Z,5.10
2018-06-11T07:36:05.838Z,4.62
2018-06-11T07:38:34.569Z,4.60
2018-06-11T07:41:03.362Z,4.40
2018-06-11T07:43:32.105Z,5.35
2018-06-11T07:46:01.052Z,5.20
2018-06-11T07:48:29.805Z,4.72
2018-06-11T07:50:58.533Z,5.08
2018-06-11T07:53:27.297Z,4.55
2018-06-11T07:55:56.030Z,4.62
2018-06-11T07:58:24.720Z,5.55
2018-06-11T08:00:53.493Z,5.40
2018-06-11T08:03:22.226Z,4.80
2018-06-11T08:05:50.949Z,4.97
2018-06-11T08:08:19.724Z,5.15
2018-06-11T08:10:48.497Z,5.35
2018-06-11T08:13:17.199Z,5.00
2018-06-11T08:15:46.356Z,5.00
2018-06-11T08:18:15.131Z,5.20
2018-06-11T08:20:43.966Z,5.08
2018-06-11T08:23:12.828Z,5.00
2018-06-11T08:25:41.534Z,4.80
2018-06-11T08:28:10.357Z,4.78
2018-06-11T08:30:39.062Z,4.95
2018-06-11T08:33:07.787Z,5.50
2018-06-11T08:35:36.459Z,4.83
2018-06-11T08:38:05.294Z,4.40
2018-06-11T08:40:33.976Z,5.05
2018-06-11T08:43:02.685Z,5.10
2018-06-11T08:45:31.465Z,4.72
2018-06-11T08:48:01.137Z,4.60
2018-06-11T08:50:29.826Z,4.95
2018-06-11T08:52:58.570Z,4.60
2018-06-11T08:55:27.339Z,4.58
2018-06-11T08:57:56.089Z,5.72
2018-06-11T09:00:24.778Z,4.70
2018-06-11T09:02:53.593Z,4.60
2018-06-11T09:05:22.305Z,4.97
2018-06-11T09:07:51.034Z,4.50
2018-06-11T09:10:19.738Z,4.25
2018-06-11T09:12:48.473Z,4.55
2018-06-11T09:15:17.235Z,4.35
2018-06-11T09:17:47.312Z,4.53
2018-06-11T09:20:16.098Z,5.03
2018-06-11T09:22:44.894Z,4.53
2018-06-11T09:25:13.716Z,3.95
2018-06-11T09:27:42.742Z,4.47
2018-06-11T09:30:11.613Z,4.20
2018-06-11T09:32:40.932Z,4.00
2018-06-11T09:35:10.039Z,3.60
2018-06-11T09:37:39.018Z,3.83
2018-06-11T09:40:07.977Z,4.00
2018-06-11T09:42:36.913Z,4.12
2018-06-11T09:45:05.771Z,4.03
2018-06-11T09:47:34.867Z,4.30
2018-06-11T09:50:03.995Z,4.20
2018-06-11T09:52:32.945Z,4.55
2018-06-11T09:55:01.823Z,3.83
2018-06-11T09:57:30.810Z,3.75
2018-06-11T09:59:59.762Z,3.72
2018-06-11T10:02:28.646Z,4.42
2018-06-11T10:04:57.691Z,4.40
2018-06-11T10:07:26.528Z,4.78
2018-06-11T10:09:55.546Z,4.17
2018-06-11T10:12:24.563Z,4.20
2018-06-11T10:14:53.373Z,4.50
2018-06-11T10:17:22.333Z,4.50
2018-06-11T10:19:51.246Z,4.90
2018-06-11T10:22:20.144Z,4.95
2018-06-11T10:24:49.260Z,4.85
2018-06-11T10:27:18.337Z,5.90
2018-06-11T10:29:47.398Z,6.25
2018-06-11T10:32:16.474Z,5.70
2018-06-11T10:34:45.571Z,6.00
2018-06-11T10:37:14.475Z,5.58
2018-06-11T10:39:43.476Z,5.35
2018-06-11T10:42:12.372Z,5.35
2018-06-11T10:44:41.250Z,6.30
2018-06-11T10:47:10.302Z,6.08
2018-06-11T10:49:39.158Z,5.85
2018-06-11T10:52:08.284Z,6.55
2018-06-11T10:54:37.345Z,6.28
2018-06-11T10:57:06.048Z,6.90
2018-06-11T10:59:34.946Z,6.33
2018-06-11T11:02:03.855Z,6.78
2018-06-11T11:04:32.839Z,6.67
2018-06-11T11:07:01.840Z,6.10
2018-06-11T11:09:30.734Z,5.83
2018-06-11T11:11:59.659Z,5.97
2018-06-11T11:14:28.681Z,6.37
2018-06-11T11:16:57.654Z,5.92
2018-06-11T11:19:26.483Z,5.75
2018-06-11T11:21:55.224Z,5.87
2018-06-11T11:24:24.170Z,6.00
2018-06-11T11:26:52.911Z,5.83
2018-06-11T11:29:21.847Z,5.85
2018-06-11T11:31:50.665Z,5.67
2018-06-11T11:34:19.589Z,6.05
2018-06-11T11:36:48.635Z,5.72
2018-06-11T11:39:17.583Z,5.78
2018-06-11T11:41:46.344Z,5.50
2018-06-11T11:44:15.302Z,5.47
2018-06-11T11:46:44.293Z,5.45
2018-06-11T11:49:13.469Z,5.40
2018-06-11T11:51:43.258Z,5.12
2018-06-11T11:54:12.066Z,4.95
2018-06-11T11:56:40.885Z,5.22
2018-06-11T11:59:09.718Z,5.28
2018-06-11T12:01:38.459Z,5.25
2018-06-11T12:04:07.514Z,5.35
2018-06-11T12:06:36.574Z,4.50
2018-06-11T12:09:07.304Z,5.00
2018-06-11T12:11:36.651Z,5.12
2018-06-11T12:14:05.812Z,5.45
2018-06-11T12:16:34.503Z,5.05
2018-06-11T12:19:03.579Z,4.92
2018-06-11T12:21:32.554Z,4.67
2018-06-11T12:24:01.476Z,4.33
2018-06-11T12:26:30.360Z,4.70
2018-06-11T12:28:59.102Z,5.12
2018-06-11T12:31:28.081Z,5.00
2018-06-11T12:33:56.970Z,4.83
2018-06-11T12:36:25.885Z,4.67
2018-06-11T12:38:54.983Z,4.65
2018-06-11T12:41:24.002Z,4.37
2018-06-11T12:43:52.718Z,4.35
2018-06-11T12:46:21.590Z,4.53
2018-06-11T12:48:50.393Z,4.35
2018-06-11T12:51:19.122Z,4.58
2018-06-11T12:53:48.173Z,4.42
2018-06-11T12:56:17.178Z,4.78
2018-06-11T12:58:46.165Z,4.33
2018-06-11T13:01:14.945Z,4.20
2018-06-11T13:03:43.731Z,4.12
2018-06-11T13:06:12.544Z,4.60
2018-06-11T13:08:41.524Z,4.10
2018-06-11T13:11:10.523Z,4.03
2018-06-11T13:13:39.256Z,3.85
2018-06-11T13:16:08.264Z,4.08
2018-06-11T13:18:37.304Z,4.40
2018-06-11T13:21:06.248Z,4.40
2018-06-11T13:23:35.383Z,4.40
2018-06-11T13:26:04.640Z,5.03
2018-06-11T13:28:33.685Z,4.83
2018-06-11T13:31:02.747Z,4.60
2018-06-11T13:33:31.731Z,4.87
2018-06-11T13:36:00.590Z,4.33
2018-06-11T13:38:29.470Z,4.58
2018-06-11T13:40:58.354Z,4.30
2018-06-11T13:43:27.448Z,4.62
2018-06-11T13:45:56.443Z,4.10
2018-06-11T13:48:25.519Z,4.30
2018-06-11T13:50:54.435Z,4.65
2018-06-11T13:53:23.611Z,4.58
2018-06-11T13:55:52.820Z,4.42
2018-06-11T13:58:21.493Z,4.47
2018-06-11T14:00:50.515Z,4.90
2018-06-11T14:03:19.295Z,4.97
2018-06-11T14:05:48.085Z,4.40
2018-06-11T14:08:16.825Z,5.28
2018-06-11T14:10:45.549Z,4.03
2018-06-11T14:13:14.322Z,4.25
2018-06-11T14:15:43.075Z,4.87
2018-06-11T14:18:11.760Z,4.70
2018-06-11T14:20:40.509Z,5.10
2018-06-11T14:23:09.318Z,4.30
2018-06-11T14:25:38.130Z,4.33
2018-06-11T14:28:06.880Z,4.72
2018-06-11T14:30:35.610Z,4.67
2018-06-11T14:33:04.361Z,5.00
2018-06-11T14:35:33.088Z,4.28
2018-06-11T14:38:01.989Z,4.85
2018-06-11T14:40:30.749Z,4.45
2018-06-11T14:42:59.460Z,4.97
2018-06-11T14:45:28.334Z,4.95
2018-06-11T14:47:57.025Z,4.62
2018-06-11T14:50:26.122Z,4.62
2018-06-11T14:52:54.965Z,4.72
2018-06-11T14:55:23.920Z,4.78
2018-06-11T14:57:53.071Z,4.85
2018-06-11T15:00:21.961Z,5.03
2018-06-11T15:02:50.874Z,5.33
2018-06-11T15:05:19.896Z,5.30
2018-06-11T15:07:48.678Z,4.87
2018-06-11T15:10:17.623Z,4.67
2018-06-11T15:12:47.407Z,4.20
2018-06-11T15:15:16.163Z,4.85
2018-06-11T15:17:45.230Z,4.97
2018-06-11T15:20:14.091Z,4.83
2018-06-11T15:22:42.918Z,4.80
2018-06-11T15:25:12.057Z,4.97
2018-06-11T15:27:40.765Z,5.10
2018-06-11T15:30:09.680Z,4.47
2018-06-11T15:32:38.486Z,4.67
2018-06-11T15:35:07.555Z,4.70
2018-06-11T15:37:36.409Z,5.28
2018-06-11T15:40:05.263Z,4.90
2018-06-11T15:42:34.226Z,5.75
2018-06-11T15:45:03.790Z,5.70
2018-06-11T15:47:32.616Z,5.62
2018-06-11T15:50:01.677Z,5.80
2018-06-11T15:52:30.516Z,5.60
2018-06-11T15:54:59.417Z,5.65
2018-06-11T15:57:28.402Z,5.67
2018-06-11T15:59:57.420Z,5.60
2018-06-11T16:02:26.607Z,5.87
2018-06-11T16:04:55.672Z,5.10
2018-06-11T16:07:24.650Z,5.62
2018-06-11T16:09:53.745Z,5.22
2018-06-11T16:12:22.785Z,5.42
2018-06-11T16:14:51.771Z,5.47
2018-06-11T16:17:20.630Z,5.25
2018-06-11T16:19:49.384Z,5.05
2018-06-11T16:22:18.558Z,5.53
2018-06-11T16:24:47.981Z,4.85
2018-06-11T16:27:17.068Z,5.33
2018-06-11T16:29:45.839Z,5.70
2018-06-11T16:32:14.578Z,5.17
2018-06-11T16:34:43.636Z,5.45
2018-06-11T16:37:12.562Z,5.20
2018-06-11T16:39:41.413Z,5.35
2018-06-11T16:42:11.045Z,5.47
2018-06-11T16:44:39.786Z,4.85
2018-06-11T16:47:08.548Z,5.10
2018-06-11T16:49:37.297Z,5.00
2018-06-11T16:52:06.058Z,5.53
2018-06-11T16:54:35.308Z,4.75
2018-06-11T16:57:04.110Z,4.60
2018-06-11T16:59:32.857Z,4.75
2018-06-11T17:02:01.685Z,4.85
2018-06-11T17:04:30.575Z,5.17
2018-06-11T17:06:59.301Z,4.75
2018-06-11T17:09:28.103Z,5.45
2018-06-11T17:11:56.877Z,4.87
2018-06-11T17:14:25.902Z,5.25
2018-06-11T17:16:54.727Z,5.90
2018-06-11T17:19:24.644Z,4.97
2018-06-11T17:21:53.751Z,4.28
2018-06-11T17:24:22.759Z,5.10
2018-06-11T17:26:51.878Z,4.53
2018-06-11T17:29:20.937Z,5.12
2018-06-11T17:31:50.051Z,5.12
2018-06-11T17:34:18.858Z,4.30
2018-06-11T17:36:47.876Z,4.78
2018-06-11T17:39:17.071Z,4.03
2018-06-11T17:41:46.112Z,4.55
2018-06-11T17:44:15.012Z,4.37
2018-06-11T17:46:44.113Z,4.80
2018-06-11T17:49:13.249Z,4.87
2018-06-11T17:51:42.087Z,4.22
2018-06-11T17:54:10.847Z,5.33
2018-06-11T17:56:40.656Z,5.28
2018-06-11T17:59:09.701Z,5.75
2018-06-11T18:01:38.484Z,5.78
2018-06-11T18:04:07.662Z,5.50
2018-06-11T18:06:36.771Z,5.62
2018-06-11T18:09:08.228Z,5.87
2018-06-11T18:11:37.578Z,5.55
2018-06-11T18:14:06.423Z,6.33
2018-06-11T18:16:35.231Z,6.08
2018-06-11T18:19:04.313Z,6.62
2018-06-11T18:21:33.071Z,5.67
2018-06-11T18:24:01.893Z,5.80
2018-06-11T18:26:30.729Z,6.15
2018-06-11T18:28:59.460Z,5.97
2018-06-11T18:31:28.251Z,6.50
2018-06-11T18:33:57.029Z,6.97
2018-06-11T18:36:26.149Z,7.00
2018-06-11T18:38:54.909Z,6.03
2018-06-11T18:41:24.136Z,6.53
2018-06-11T18:43:53.172Z,6.80
2018-06-11T18:46:22.319Z,6.03
2018-06-11T18:48:51.455Z,6.25
2018-06-11T18:51:20.368Z,5.75
2018-06-11T18:53:49.121Z,5.90
2018-06-11T18:56:17.886Z,5.58
2018-06-11T18:58:46.724Z,6.35
2018-06-11T19:01:15.563Z,5.65
2018-06-11T19:03:44.454Z,5.75
2018-06-11T19:06:13.463Z,5.72
2018-06-11T19:08:42.263Z,5.08
2018-06-11T19:11:11.054Z,4.87
2018-06-11T19:13:39.799Z,5.15
2018-06-11T19:16:08.660Z,5.15
2018-06-11T19:18:37.453Z,4.95
2018-06-11T19:21:06.454Z,4.90
2018-06-11T19:23:35.329Z,5.25
2018-06-11T19:26:04.230Z,5.28
2018-06-11T19:28:33.209Z,5.10
2018-06-11T19:31:01.982Z,4.72
2018-06-11T19:33:30.901Z,5.05
2018-06-11T19:35:59.812Z,4.75
2018-06-11T19:38:28.645Z,4.22
2018-06-11T19:40:57.567Z,4.53
2018-06-11T19:43:26.642Z,3.70
2018-06-11T19:45:55.458Z,4.45
2018-06-11T19:48:24.566Z,4.70
2018-06-11T19:50:54.801Z,4.03
2018-06-11T19:53:23.805Z,4.42
2018-06-11T19:55:52.695Z,4.37
2018-06-11T19:58:21.629Z,3.55
2018-06-11T20:00:50.464Z,3.98
2018-06-11T20:03:19.199Z,3.95
2018-06-11T20:05:47.983Z,4.42
2018-06-11T20:08:17.028Z,3.80
2018-06-11T20:10:46.276Z,3.90
2018-06-11T20:13:15.129Z,3.00
2018-06-11T20:15:43.907Z,3.67
2018-06-11T20:18:12.693Z,3.70
2018-06-11T20:20:42.630Z,3.25
2018-06-11T20:23:11.760Z,3.33
2018-06-11T20:25:40.887Z,4.10
2018-06-11T20:28:10.008Z,3.67
2018-06-11T20:30:38.748Z,4.03
2018-06-11T20:33:07.548Z,3.55
2018-06-11T20:35:36.347Z,3.90
2018-06-11T20:38:05.106Z,3.95
2018-06-11T20:40:34.035Z,3.92
2018-06-11T20:43:02.998Z,4.55
2018-06-11T20:45:32.058Z,4.28
2018-06-11T20:48:01.130Z,4.33
2018-06-11T20:50:29.956Z,4.60
2018-06-11T20:52:58.695Z,5.25
2018-06-11T20:55:27.654Z,5.60
2018-06-11T20:57:56.527Z,6.22
2018-06-11T21:00:25.714Z,5.95
2018-06-11T21:02:54.677Z,5.83
2018-06-11T21:05:23.522Z,6.83
2018-06-11T21:07:52.432Z,5.33
2018-06-11T21:10:21.161Z,6.85
2018-06-11T21:12:50.069Z,6.97
2018-06-11T21:15:18.821Z,7.35
2018-06-11T21:17:47.637Z,6.33
2018-06-11T21:20:16.341Z,6.58
2018-06-11T21:22:45.153Z,6.45
2018-06-11T21:25:13.910Z,7.30
2018-06-11T21:27:42.660Z,7.95
2018-06-11T21:30:11.573Z,8.48
2018-06-11T21:32:40.283Z,9.45
2018-06-11T21:35:09.968Z,8.03
2018-06-11T21:37:38.736Z,9.28
2018-06-11T21:40:07.463Z,8.25
2018-06-11T21:42:36.208Z,7.47
2018-06-11T21:45:05.110Z,8.15
2018-06-11T21:47:33.849Z,7.90
2018-06-11T21:50:02.555Z,8.08
2018-06-11T21:52:31.330Z,8.00
2018-06-11T21:55:00.123Z,8.10
2018-06-11T21:57:28.822Z,7.97
2018-06-11T21:59:57.522Z,8.05
2018-06-11T22:02:26.252Z,7.03
2018-06-11T22:04:55.023Z,7.45
2018-06-11T22:07:23.720Z,6.75
2018-06-11T22:09:52.638Z,6.72
2018-06-11T22:12:21.666Z,7.42
2018-06-11T22:14:50.634Z,7.70
2018-06-11T22:17:19.335Z,7.20
2018-06-11T22:19:48.230Z,6.87
2018-06-11T22:22:17.221Z,5.92
2018-06-11T22:24:46.098Z,6.78
2018-06-11T22:27:14.865Z,7.75
2018-06-11T22:29:43.604Z,7.05
2018-06-11T22:32:13.692Z,7.10
2018-06-11T22:34:42.759Z,7.47
2018-06-11T22:37:11.753Z,7.00
2018-06-11T22:39:40.625Z,6.37
2018-06-11T22:42:09.642Z,5.92
2018-06-11T22:44:38.877Z,6.40
2018-06-11T22:47:07.864Z,6.10
2018-06-11T22:49:36.848Z,6.53
2018-06-11T22:52:06.273Z,6.08
2018-06-11T22:54:35.221Z,6.22
2018-06-11T22:57:04.108Z,5.85
2018-06-11T22:59:32.990Z,5.87
2018-06-11T23:02:01.895Z,6.10
2018-06-11T23:04:30.888Z,5.53
2018-06-11T23:06:59.925Z,5.67
2018-06-11T23:09:28.871Z,5.42
2018-06-11T23:11:57.965Z,5.65
2018-06-11T23:14:27.019Z,5.10
2018-06-11T23:16:55.905Z,5.28
2018-06-11T23:19:24.866Z,5.10
2018-06-11T23:21:53.884Z,4.80
2018-06-11T23:24:22.817Z,4.90
2018-06-11T23:26:51.573Z,5.00
2018-06-11T23:29:20.512Z,4.90
2018-06-11T23:31:49.458Z,5.40
2018-06-11T23:34:18.160Z,4.47
2018-06-11T23:36:47.083Z,4.80
2018-06-11T23:39:15.924Z,4.78
2018-06-11T23:41:44.891Z,4.62
2018-06-11T23:44:13.757Z,4.60
2018-06-11T23:46:42.752Z,4.00
2018-06-11T23:49:11.718Z,4.30
2018-06-11T23:51:40.543Z,4.70
2018-06-11T23:54:09.388Z,4.62
2018-06-11T23:56:38.078Z,4.50
2018-06-11T23:59:06.778Z,4.55
